sensor_id;sensor_type;location;lat;lon;timestamp;pressure;altitude;pressure_sealevel;temperature
29549;BMP280;16487;53.094;8.800;2024-03-23T00:55:24;100804.94;;;6.85
29549;BMP280;16487;53.094;8.800;2024-03-23T00:57:50;100803.34;;;6.84
29549;BMP280;16487;53.094;8.800;2024-03-23T01:00:17;100794.00;;;6.86
29549;BMP280;16487;53.094;8.800;2024-03-23T01:02:43;100798.66;;;6.91
29549;BMP280;16487;53.094;8.800;2024-03-23T01:05:10;100791.56;;;6.85
29549;BMP280;16487;53.094;8.800;2024-03-23T01:07:36;100802.25;;;6.85
29549;BMP280;16487;53.094;8.800;2024-03-23T01:10:05;100791.75;;;6.78
29549;BMP280;16487;53.094;8.800;2024-03-23T01:12:32;100782.78;;;6.72
29549;BMP280;16487;53.094;8.800;2024-03-23T01:14:58;100773.00;;;6.78
29549;BMP280;16487;53.094;8.800;2024-03-23T01:17:24;100775.56;;;6.73
29549;BMP280;16487;53.094;8.800;2024-03-23T01:19:51;100776.97;;;6.75
29549;BMP280;16487;53.094;8.800;2024-03-23T01:22:17;100767.06;;;6.76
29549;BMP280;16487;53.094;8.800;2024-03-23T01:24:43;100751.25;;;6.74
29549;BMP280;16487;53.094;8.800;2024-03-23T01:27:10;100754.63;;;6.70
29549;BMP280;16487;53.094;8.800;2024-03-23T01:29:37;100757.97;;;6.77
29549;BMP280;16487;53.094;8.800;2024-03-23T01:32:04;100755.06;;;6.78
29549;BMP280;16487;53.094;8.800;2024-03-23T01:34:32;100755.06;;;6.78
29549;BMP280;16487;53.094;8.800;2024-03-23T01:36:58;100740.28;;;6.76
29549;BMP280;16487;53.094;8.800;2024-03-23T01:39:24;100739.94;;;6.72
29549;BMP280;16487;53.094;8.800;2024-03-23T01:41:51;100742.63;;;6.72
29549;BMP280;16487;53.094;8.800;2024-03-23T01:44:19;100734.00;;;6.70
29549;BMP280;16487;53.094;8.800;2024-03-23T01:46:46;100732.06;;;6.66
29549;BMP280;16487;53.094;8.800;2024-03-23T01:49:14;100724.75;;;6.61
29549;BMP280;16487;53.094;8.800;2024-03-23T01:51:41;100716.25;;;6.64
29549;BMP280;16487;53.094;8.800;2024-03-23T01:54:07;100717.78;;;6.60
29549;BMP280;16487;53.094;8.800;2024-03-23T01:56:35;100718.69;;;6.66
29549;BMP280;16487;53.094;8.800;2024-03-23T01:59:01;100726.63;;;6.60
29549;BMP280;16487;53.094;8.800;2024-03-23T02:01:29;100723.16;;;6.60
29549;BMP280;16487;53.094;8.800;2024-03-23T02:03:55;100724.75;;;6.61
29549;BMP280;16487;53.094;8.800;2024-03-23T02:06:21;100712.91;;;6.57
29549;BMP280;16487;53.094;8.800;2024-03-23T02:08:48;100706.50;;;6.58
29549;BMP280;16487;53.094;8.800;2024-03-23T02:11:14;100713.69;;;6.57
29549;BMP280;16487;53.094;8.800;2024-03-23T02:13:40;100711.28;;;6.56
29549;BMP280;16487;53.094;8.800;2024-03-23T02:16:06;100698.03;;;6.49
29549;BMP280;16487;53.094;8.800;2024-03-23T02:18:34;100704.81;;;6.52
29549;BMP280;16487;53.094;8.800;2024-03-23T02:21:01;100713.69;;;6.57
29549;BMP280;16487;53.094;8.800;2024-03-23T02:23:28;100714.53;;;6.58
29549;BMP280;16487;53.094;8.800;2024-03-23T02:25:54;100705.63;;;6.52
29549;BMP280;16487;53.094;8.800;2024-03-23T02:28:20;100702.34;;;6.50
29549;BMP280;16487;53.094;8.800;2024-03-23T02:30:47;100695.22;;;6.56
29549;BMP280;16487;53.094;8.800;2024-03-23T02:33:13;100690.94;;;6.55
29549;BMP280;16487;53.094;8.800;2024-03-23T02:35:39;100694.44;;;6.55
29549;BMP280;16487;53.094;8.800;2024-03-23T02:38:05;100676.88;;;6.47
29549;BMP280;16487;53.094;8.800;2024-03-23T02:40:33;100670.47;;;6.49
29549;BMP280;16487;53.094;8.800;2024-03-23T02:42:59;100681.84;;;6.56
29549;BMP280;16487;53.094;8.800;2024-03-23T02:45:25;100683.41;;;6.52
29549;BMP280;16487;53.094;8.800;2024-03-23T02:47:51;100678.59;;;6.54
29549;BMP280;16487;53.094;8.800;2024-03-23T02:50:18;100677.84;;;6.41
29549;BMP280;16487;53.094;8.800;2024-03-23T02:52:44;100669.31;;;6.44
29549;BMP280;16487;53.094;8.800;2024-03-23T02:55:10;100658.31;;;6.41
29549;BMP280;16487;53.094;8.800;2024-03-23T02:57:38;100657.22;;;6.42
29549;BMP280;16487;53.094;8.800;2024-03-23T03:00:05;100657.22;;;6.42
29549;BMP280;16487;53.094;8.800;2024-03-23T03:02:31;100652.22;;;6.45
29549;BMP280;16487;53.094;8.800;2024-03-23T03:04:57;100651.09;;;6.41
29549;BMP280;16487;53.094;8.800;2024-03-23T03:07:24;100645.25;;;6.44
29549;BMP280;16487;53.094;8.800;2024-03-23T03:09:50;100641.91;;;6.37
29549;BMP280;16487;53.094;8.800;2024-03-23T03:12:16;100634.38;;;6.34
29549;BMP280;16487;53.094;8.800;2024-03-23T03:14:44;100637.16;;;6.39
29549;BMP280;16487;53.094;8.800;2024-03-23T03:17:10;100637.63;;;6.36
29549;BMP280;16487;53.094;8.800;2024-03-23T03:19:36;100633.69;;;6.39
29549;BMP280;16487;53.094;8.800;2024-03-23T03:22:02;100630.41;;;6.37
29549;BMP280;16487;53.094;8.800;2024-03-23T03:24:29;100632.94;;;6.43
29549;BMP280;16487;53.094;8.800;2024-03-23T03:26:55;100635.03;;;6.41
29549;BMP280;16487;53.094;8.800;2024-03-23T03:29:21;100641.81;;;6.32
29549;BMP280;16487;53.094;8.800;2024-03-23T03:31:48;100626.25;;;6.29
29549;BMP280;16487;53.094;8.800;2024-03-23T03:34:14;100610.44;;;6.27
29549;BMP280;16487;53.094;8.800;2024-03-23T03:36:41;100622.47;;;6.25
29549;BMP280;16487;53.094;8.800;2024-03-23T03:39:07;100625.38;;;6.23
29549;BMP280;16487;53.094;8.800;2024-03-23T03:41:33;100615.47;;;6.24
29549;BMP280;16487;53.094;8.800;2024-03-23T03:43:59;100617.34;;;6.23
29549;BMP280;16487;53.094;8.800;2024-03-23T03:46:25;100610.84;;;6.19
29549;BMP280;16487;53.094;8.800;2024-03-23T03:48:54;100595.94;;;6.23
29549;BMP280;16487;53.094;8.800;2024-03-23T03:51:20;100571.28;;;6.21
29549;BMP280;16487;53.094;8.800;2024-03-23T03:53:46;100560.84;;;6.20
29549;BMP280;16487;53.094;8.800;2024-03-23T03:56:12;100573.16;;;6.21
29549;BMP280;16487;53.094;8.800;2024-03-23T03:58:38;100572.59;;;6.19
29549;BMP280;16487;53.094;8.800;2024-03-23T04:01:05;100581.03;;;6.10
29549;BMP280;16487;53.094;8.800;2024-03-23T04:03:31;100594.00;;;6.19
29549;BMP280;16487;53.094;8.800;2024-03-23T04:05:58;100597.00;;;6.22
29549;BMP280;16487;53.094;8.800;2024-03-23T04:08:24;100593.75;;;6.20
29549;BMP280;16487;53.094;8.800;2024-03-23T04:10:51;100598.63;;;6.23
29549;BMP280;16487;53.094;8.800;2024-03-23T04:13:17;100598.63;;;6.23
29549;BMP280;16487;53.094;8.800;2024-03-23T04:15:43;100598.03;;;6.21
29549;BMP280;16487;53.094;8.800;2024-03-23T04:18:09;100598.13;;;6.26
29549;BMP280;16487;53.094;8.800;2024-03-23T04:20:35;100592.88;;;6.32
29549;BMP280;16487;53.094;8.800;2024-03-23T04:23:03;100594.97;;;6.29
29549;BMP280;16487;53.094;8.800;2024-03-23T04:25:29;100603.25;;;6.28
29549;BMP280;16487;53.094;8.800;2024-03-23T04:27:55;100605.91;;;6.28
29549;BMP280;16487;53.094;8.800;2024-03-23T04:30:21;100598.03;;;6.21
29549;BMP280;16487;53.094;8.800;2024-03-23T04:32:48;100597.22;;;6.21
29549;BMP280;16487;53.094;8.800;2024-03-23T04:35:14;100584.44;;;6.23
29549;BMP280;16487;53.094;8.800;2024-03-23T04:37:40;100578.34;;;6.27
29549;BMP280;16487;53.094;8.800;2024-03-23T04:40:08;100587.34;;;6.21
29549;BMP280;16487;53.094;8.800;2024-03-23T04:42:34;100583.28;;;6.19
29549;BMP280;16487;53.094;8.800;2024-03-23T04:45:00;100571.63;;;6.08
29549;BMP280;16487;53.094;8.800;2024-03-23T04:47:27;100566.25;;;6.08
29549;BMP280;16487;53.094;8.800;2024-03-23T04:49:53;100565.44;;;6.07
29549;BMP280;16487;53.094;8.800;2024-03-23T04:52:19;100572.41;;;6.08
29549;BMP280;16487;53.094;8.800;2024-03-23T04:54:45;100574.44;;;6.18
29549;BMP280;16487;53.094;8.800;2024-03-23T04:57:13;100586.94;;;6.29
29549;BMP280;16487;53.094;8.800;2024-03-23T04:59:46;100586.06;;;6.24
29549;BMP280;16487;53.094;8.800;2024-03-23T05:02:12;100579.91;;;6.23
29549;BMP280;16487;53.094;8.800;2024-03-23T05:04:39;100577.31;;;6.11
29549;BMP280;16487;53.094;8.800;2024-03-23T05:07:05;100576.56;;;6.16
29549;BMP280;16487;53.094;8.800;2024-03-23T05:09:31;100565.78;;;6.11
29549;BMP280;16487;53.094;8.800;2024-03-23T05:11:57;100562.31;;;6.10
29549;BMP280;16487;53.094;8.800;2024-03-23T05:14:25;100548.25;;;6.03
29549;BMP280;16487;53.094;8.800;2024-03-23T05:16:51;100550.69;;;6.05
29549;BMP280;16487;53.094;8.800;2024-03-23T05:19:17;100553.94;;;6.07
29549;BMP280;16487;53.094;8.800;2024-03-23T05:21:43;100555.50;;;5.91
29549;BMP280;16487;53.094;8.800;2024-03-23T05:24:10;100547.72;;;5.89
29549;BMP280;16487;53.094;8.800;2024-03-23T05:26:36;100546.75;;;5.78
29549;BMP280;16487;53.094;8.800;2024-03-23T05:29:02;100536.13;;;5.67
29549;BMP280;16487;53.094;8.800;2024-03-23T05:31:31;100536.00;;;5.61
29549;BMP280;16487;53.094;8.800;2024-03-23T05:33:57;100539.91;;;5.71
29549;BMP280;16487;53.094;8.800;2024-03-23T05:36:24;100535.28;;;5.66
29549;BMP280;16487;53.094;8.800;2024-03-23T05:38:50;100533.31;;;5.61
29549;BMP280;16487;53.094;8.800;2024-03-23T05:41:16;100528.91;;;5.67
29549;BMP280;16487;53.094;8.800;2024-03-23T05:43:42;100530.78;;;5.67
29549;BMP280;16487;53.094;8.800;2024-03-23T05:46:09;100534.72;;;5.64
29549;BMP280;16487;53.094;8.800;2024-03-23T05:48:36;100531.81;;;5.66
29549;BMP280;16487;53.094;8.800;2024-03-23T05:51:03;100529.50;;;5.57
29549;BMP280;16487;53.094;8.800;2024-03-23T05:53:29;100534.38;;;5.60
29549;BMP280;16487;53.094;8.800;2024-03-23T05:56:00;100534.72;;;5.64
29549;BMP280;16487;53.094;8.800;2024-03-23T05:58:27;100541.66;;;5.65
29549;BMP280;16487;53.094;8.800;2024-03-23T06:00:57;100535.53;;;5.64
29549;BMP280;16487;53.094;8.800;2024-03-23T06:03:23;100535.59;;;5.70
29549;BMP280;16487;53.094;8.800;2024-03-23T06:05:51;100527.63;;;5.58
29549;BMP280;16487;53.094;8.800;2024-03-23T06:08:17;100526.13;;;5.62
29549;BMP280;16487;53.094;8.800;2024-03-23T06:10:43;100528.22;;;5.60
29549;BMP280;16487;53.094;8.800;2024-03-23T06:13:09;100514.97;;;5.53
29549;BMP280;16487;53.094;8.800;2024-03-23T06:15:35;100520.66;;;5.57
29549;BMP280;16487;53.094;8.800;2024-03-23T06:18:01;100518.22;;;5.67
29549;BMP280;16487;53.094;8.800;2024-03-23T06:20:28;100521.66;;;5.79
29549;BMP280;16487;53.094;8.800;2024-03-23T06:22:55;100517.81;;;5.75
29549;BMP280;16487;53.094;8.800;2024-03-23T06:25:22;100520.81;;;5.79
29549;BMP280;16487;53.094;8.800;2024-03-23T06:27:48;100514.19;;;5.82
29549;BMP280;16487;53.094;8.800;2024-03-23T06:30:14;100518.66;;;5.93
29549;BMP280;16487;53.094;8.800;2024-03-23T06:32:40;100524.59;;;5.95
29549;BMP280;16487;53.094;8.800;2024-03-23T06:35:07;100525.69;;;5.99
29549;BMP280;16487;53.094;8.800;2024-03-23T06:37:33;100525.81;;;6.04
29549;BMP280;16487;53.094;8.800;2024-03-23T06:40:01;100519.63;;;6.04
29549;BMP280;16487;53.094;8.800;2024-03-23T06:42:27;100529.63;;;6.08
29549;BMP280;16487;53.094;8.800;2024-03-23T06:44:53;100524.88;;;6.10
29549;BMP280;16487;53.094;8.800;2024-03-23T06:47:19;100530.44;;;6.09
29549;BMP280;16487;53.094;8.800;2024-03-23T06:49:45;100528.25;;;6.23
29549;BMP280;16487;53.094;8.800;2024-03-23T06:52:12;100534.34;;;6.35
29549;BMP280;16487;53.094;8.800;2024-03-23T06:54:38;100540.03;;;6.39
29549;BMP280;16487;53.094;8.800;2024-03-23T06:57:05;100538.72;;;6.41
29549;BMP280;16487;53.094;8.800;2024-03-23T06:59:32;100554.47;;;6.55
29549;BMP280;16487;53.094;8.800;2024-03-23T07:01:58;100554.22;;;6.56
29549;BMP280;16487;53.094;8.800;2024-03-23T07:04:24;100562.22;;;6.73
29549;BMP280;16487;53.094;8.800;2024-03-23T07:06:50;100562.38;;;6.67
29549;BMP280;16487;53.094;8.800;2024-03-23T07:09:16;100569.91;;;6.70
29549;BMP280;16487;53.094;8.800;2024-03-23T07:11:43;100589.47;;;6.70
29549;BMP280;16487;53.094;8.800;2024-03-23T07:14:12;100575.97;;;6.82
29549;BMP280;16487;53.094;8.800;2024-03-23T07:16:38;100584.28;;;6.81
29549;BMP280;16487;53.094;8.800;2024-03-23T07:19:04;100583.22;;;6.82
29549;BMP280;16487;53.094;8.800;2024-03-23T07:21:30;100589.78;;;6.91
29549;BMP280;16487;53.094;8.800;2024-03-23T07:23:56;100588.31;;;7.00
29549;BMP280;16487;53.094;8.800;2024-03-23T07:26:22;100593.78;;;7.10
29549;BMP280;16487;53.094;8.800;2024-03-23T07:28:49;100615.00;;;7.12
29549;BMP280;16487;53.094;8.800;2024-03-23T07:31:16;100604.97;;;7.24
29549;BMP280;16487;53.094;8.800;2024-03-23T07:33:44;100606.44;;;7.32
29549;BMP280;16487;53.094;8.800;2024-03-23T07:36:11;100615.31;;;7.38
29549;BMP280;16487;53.094;8.800;2024-03-23T07:38:37;100610.06;;;7.43
29549;BMP280;16487;53.094;8.800;2024-03-23T07:41:04;100609.38;;;7.58
29549;BMP280;16487;53.094;8.800;2024-03-23T07:43:36;100624.50;;;7.64
29549;BMP280;16487;53.094;8.800;2024-03-23T07:46:18;100626.47;;;7.74
29549;BMP280;16487;53.094;8.800;2024-03-23T07:48:45;100632.41;;;7.76
29549;BMP280;16487;53.094;8.800;2024-03-23T07:51:15;100636.56;;;7.89
29549;BMP280;16487;53.094;8.800;2024-03-23T07:53:43;100654.66;;;7.99
29549;BMP280;16487;53.094;8.800;2024-03-23T07:56:10;100640.94;;;7.95
29549;BMP280;16487;53.094;8.800;2024-03-23T07:58:37;100638.63;;;8.09
29549;BMP280;16487;53.094;8.800;2024-03-23T08:01:04;100647.66;;;7.98
29549;BMP280;16487;53.094;8.800;2024-03-23T08:03:32;100655.03;;;7.85
29549;BMP280;16487;53.094;8.800;2024-03-23T08:06:06;100631.97;;;7.84
29549;BMP280;16487;53.094;8.800;2024-03-23T08:08:32;100632.78;;;7.85
29549;BMP280;16487;53.094;8.800;2024-03-23T08:10:58;100623.72;;;7.91
29549;BMP280;16487;53.094;8.800;2024-03-23T08:13:26;100639.00;;;7.90
29549;BMP280;16487;53.094;8.800;2024-03-23T08:15:56;100640.19;;;8.00
29549;BMP280;16487;53.094;8.800;2024-03-23T08:18:23;100636.47;;;8.06
29549;BMP280;16487;53.094;8.800;2024-03-23T08:20:57;100627.13;;;8.08
29549;BMP280;16487;53.094;8.800;2024-03-23T08:23:24;100631.53;;;8.20
29549;BMP280;16487;53.094;8.800;2024-03-23T08:25:50;100640.38;;;8.20
29549;BMP280;16487;53.094;8.800;2024-03-23T08:28:16;100639.06;;;8.23
29549;BMP280;16487;53.094;8.800;2024-03-23T08:30:42;100641.13;;;8.43
29549;BMP280;16487;53.094;8.800;2024-03-23T08:33:09;100672.38;;;8.59
29549;BMP280;16487;53.094;8.800;2024-03-23T08:35:35;100696.66;;;8.70
29549;BMP280;16487;53.094;8.800;2024-03-23T08:38:03;100688.31;;;8.71
29549;BMP280;16487;53.094;8.800;2024-03-23T08:40:29;100700.22;;;8.75
29549;BMP280;16487;53.094;8.800;2024-03-23T08:42:55;100669.78;;;8.70
29549;BMP280;16487;53.094;8.800;2024-03-23T08:45:21;100654.25;;;8.77
29549;BMP280;16487;53.094;8.800;2024-03-23T08:47:47;100658.03;;;8.76
29549;BMP280;16487;53.094;8.800;2024-03-23T08:50:13;100655.44;;;8.91
29549;BMP280;16487;53.094;8.800;2024-03-23T08:52:40;100635.38;;;9.09
29549;BMP280;16487;53.094;8.800;2024-03-23T08:55:08;100649.50;;;9.37
29549;BMP280;16487;53.094;8.800;2024-03-23T08:57:34;100653.00;;;9.33
29549;BMP280;16487;53.094;8.800;2024-03-23T09:00:00;100660.28;;;9.42
29549;BMP280;16487;53.094;8.800;2024-03-23T09:02:26;100656.03;;;9.52
29549;BMP280;16487;53.094;8.800;2024-03-23T09:04:52;100640.75;;;9.09
29549;BMP280;16487;53.094;8.800;2024-03-23T09:07:18;100629.13;;;8.93
29549;BMP280;16487;53.094;8.800;2024-03-23T09:09:44;100643.06;;;8.90
29549;BMP280;16487;53.094;8.800;2024-03-23T09:12:12;100628.13;;;9.05
29549;BMP280;16487;53.094;8.800;2024-03-23T09:14:38;100635.16;;;9.11
29549;BMP280;16487;53.094;8.800;2024-03-23T09:17:05;100647.38;;;9.39
29549;BMP280;16487;53.094;8.800;2024-03-23T09:19:31;100671.94;;;9.69
29549;BMP280;16487;53.094;8.800;2024-03-23T09:21:57;100671.44;;;9.77
29549;BMP280;16487;53.094;8.800;2024-03-23T09:24:23;100667.41;;;9.69
29549;BMP280;16487;53.094;8.800;2024-03-23T09:26:51;100661.97;;;9.59
29549;BMP280;16487;53.094;8.800;2024-03-23T09:29:18;100636.66;;;9.55
29549;BMP280;16487;53.094;8.800;2024-03-23T09:31:45;100643.75;;;9.71
29549;BMP280;16487;53.094;8.800;2024-03-23T09:34:11;100637.78;;;9.64
29549;BMP280;16487;53.094;8.800;2024-03-23T09:36:37;100628.88;;;9.53
29549;BMP280;16487;53.094;8.800;2024-03-23T09:39:03;100624.53;;;9.42
29549;BMP280;16487;53.094;8.800;2024-03-23T09:41:29;100628.16;;;9.89
29549;BMP280;16487;53.094;8.800;2024-03-23T09:43:55;100640.00;;;9.98
29549;BMP280;16487;53.094;8.800;2024-03-23T09:46:23;100645.94;;;10.21
29549;BMP280;16487;53.094;8.800;2024-03-23T09:48:50;100649.47;;;10.06
29549;BMP280;16487;53.094;8.800;2024-03-23T09:51:16;100654.03;;;10.00
29549;BMP280;16487;53.094;8.800;2024-03-23T09:53:42;100656.06;;;9.67
29549;BMP280;16487;53.094;8.800;2024-03-23T09:56:08;100633.09;;;9.34
29549;BMP280;16487;53.094;8.800;2024-03-23T09:58:34;100626.88;;;9.23
29549;BMP280;16487;53.094;8.800;2024-03-23T10:01:01;100637.22;;;9.52
29549;BMP280;16487;53.094;8.800;2024-03-23T10:03:29;100631.91;;;9.72
29549;BMP280;16487;53.094;8.800;2024-03-23T10:06:02;100633.72;;;9.51
29549;BMP280;16487;53.094;8.800;2024-03-23T10:08:29;100623.16;;;9.34
29549;BMP280;16487;53.094;8.800;2024-03-23T10:10:55;100610.81;;;9.38
29549;BMP280;16487;53.094;8.800;2024-03-23T10:13:25;100621.34;;;9.55
29549;BMP280;16487;53.094;8.800;2024-03-23T10:15:56;100671.78;;;10.89
29549;BMP280;16487;53.094;8.800;2024-03-23T10:18:22;100723.00;;;11.75
29549;BMP280;16487;53.094;8.800;2024-03-23T10:20:52;100710.59;;;11.79
29549;BMP280;16487;53.094;8.800;2024-03-23T10:23:26;100677.16;;;10.99
29549;BMP280;16487;53.094;8.800;2024-03-23T10:25:52;100648.66;;;10.36
29549;BMP280;16487;53.094;8.800;2024-03-23T10:28:18;100629.53;;;10.12
29549;BMP280;16487;53.094;8.800;2024-03-23T10:30:44;100642.47;;;10.20
29549;BMP280;16487;53.094;8.800;2024-03-23T10:33:11;100618.53;;;10.34
29549;BMP280;16487;53.094;8.800;2024-03-23T10:35:37;100626.59;;;10.08
29549;BMP280;16487;53.094;8.800;2024-03-23T10:38:06;100623.88;;;10.13
29549;BMP280;16487;53.094;8.800;2024-03-23T10:40:34;100624.41;;;10.57
29549;BMP280;16487;53.094;8.800;2024-03-23T10:43:03;100636.53;;;10.59
29549;BMP280;16487;53.094;8.800;2024-03-23T10:45:29;100626.56;;;10.39
29549;BMP280;16487;53.094;8.800;2024-03-23T10:47:56;100633.53;;;10.61
29549;BMP280;16487;53.094;8.800;2024-03-23T10:50:22;100616.34;;;10.41
29549;BMP280;16487;53.094;8.800;2024-03-23T10:52:49;100600.72;;;10.02
29549;BMP280;16487;53.094;8.800;2024-03-23T10:55:17;100608.25;;;9.95
29549;BMP280;16487;53.094;8.800;2024-03-23T10:57:49;100620.66;;;10.27
29549;BMP280;16487;53.094;8.800;2024-03-23T11:00:17;100646.25;;;10.55
29549;BMP280;16487;53.094;8.800;2024-03-23T11:02:43;100644.28;;;11.02
29549;BMP280;16487;53.094;8.800;2024-03-23T11:05:30;100663.25;;;11.92
29549;BMP280;16487;53.094;8.800;2024-03-23T11:07:56;100660.25;;;11.98
29549;BMP280;16487;53.094;8.800;2024-03-23T11:10:28;100650.41;;;11.73
29549;BMP280;16487;53.094;8.800;2024-03-23T11:12:54;100654.53;;;10.90
29549;BMP280;16487;53.094;8.800;2024-03-23T11:15:20;100667.06;;;11.36
29549;BMP280;16487;53.094;8.800;2024-03-23T11:18:02;100669.38;;;11.63
29549;BMP280;16487;53.094;8.800;2024-03-23T11:20:31;100680.91;;;12.18
29549;BMP280;16487;53.094;8.800;2024-03-23T11:22:57;100695.81;;;12.45
29549;BMP280;16487;53.094;8.800;2024-03-23T11:25:26;100708.88;;;13.40
29549;BMP280;16487;53.094;8.800;2024-03-23T11:27:54;100673.50;;;11.90
29549;BMP280;16487;53.094;8.800;2024-03-23T11:30:22;100717.53;;;13.42
29549;BMP280;16487;53.094;8.800;2024-03-23T11:32:49;100702.97;;;12.26
29549;BMP280;16487;53.094;8.800;2024-03-23T11:35:25;100667.31;;;11.89
29549;BMP280;16487;53.094;8.800;2024-03-23T11:38:05;100641.47;;;11.28
29549;BMP280;16487;53.094;8.800;2024-03-23T11:40:34;100649.91;;;11.66
29549;BMP280;16487;53.094;8.800;2024-03-23T11:43:01;100694.72;;;12.76
29549;BMP280;16487;53.094;8.800;2024-03-23T11:45:27;100662.28;;;11.72
29549;BMP280;16487;53.094;8.800;2024-03-23T11:48:05;100649.25;;;12.24
29549;BMP280;16487;53.094;8.800;2024-03-23T11:50:31;100683.63;;;13.26
29549;BMP280;16487;53.094;8.800;2024-03-23T11:53:14;100650.31;;;11.94
29549;BMP280;16487;53.094;8.800;2024-03-23T11:55:46;100721.41;;;13.55
29549;BMP280;16487;53.094;8.800;2024-03-23T11:58:12;100692.94;;;12.95
29549;BMP280;16487;53.094;8.800;2024-03-23T12:00:39;100705.91;;;13.41
29549;BMP280;16487;53.094;8.800;2024-03-23T12:03:06;100687.34;;;13.30
29549;BMP280;16487;53.094;8.800;2024-03-23T12:05:33;100652.19;;;11.93
29549;BMP280;16487;53.094;8.800;2024-03-23T12:08:19;100611.22;;;11.41
29549;BMP280;16487;53.094;8.800;2024-03-23T12:10:48;100585.06;;;10.61
29549;BMP280;16487;53.094;8.800;2024-03-23T12:13:15;100552.03;;;9.98
29549;BMP280;16487;53.094;8.800;2024-03-23T12:15:42;100487.13;;;9.48
29549;BMP280;16487;53.094;8.800;2024-03-23T12:18:08;100503.94;;;8.97
29549;BMP280;16487;53.094;8.800;2024-03-23T12:20:34;100506.13;;;9.06
29549;BMP280;16487;53.094;8.800;2024-03-23T12:23:11;100497.69;;;8.76
29549;BMP280;16487;53.094;8.800;2024-03-23T12:25:41;100491.56;;;6.96
29549;BMP280;16487;53.094;8.800;2024-03-23T12:28:08;100459.41;;;6.52
29549;BMP280;16487;53.094;8.800;2024-03-23T12:30:35;100477.28;;;6.29
29549;BMP280;16487;53.094;8.800;2024-03-23T12:33:03;100463.75;;;6.36
29549;BMP280;16487;53.094;8.800;2024-03-23T12:35:29;100478.06;;;6.30
29549;BMP280;16487;53.094;8.800;2024-03-23T12:37:55;100451.63;;;6.34
29549;BMP280;16487;53.094;8.800;2024-03-23T12:40:21;100455.84;;;6.46
29549;BMP280;16487;53.094;8.800;2024-03-23T12:42:47;100480.09;;;7.01
29549;BMP280;16487;53.094;8.800;2024-03-23T12:45:15;100509.84;;;7.44
29549;BMP280;16487;53.094;8.800;2024-03-23T12:47:41;100513.69;;;8.13
29549;BMP280;16487;53.094;8.800;2024-03-23T12:50:08;100569.22;;;8.93
29549;BMP280;16487;53.094;8.800;2024-03-23T12:52:34;100588.78;;;9.57
29549;BMP280;16487;53.094;8.800;2024-03-23T12:55:00;100613.38;;;10.38
29549;BMP280;16487;53.094;8.800;2024-03-23T12:57:26;100656.19;;;12.01
29549;BMP280;16487;53.094;8.800;2024-03-23T12:59:53;100675.28;;;12.98
29549;BMP280;16487;53.094;8.800;2024-03-23T13:02:21;100696.59;;;13.29
29549;BMP280;16487;53.094;8.800;2024-03-23T13:04:49;100702.66;;;13.39
29549;BMP280;16487;53.094;8.800;2024-03-23T13:07:16;100725.81;;;13.27
29549;BMP280;16487;53.094;8.800;2024-03-23T13:09:43;100698.88;;;13.79
29549;BMP280;16487;53.094;8.800;2024-03-23T13:12:09;100695.22;;;13.69
29549;BMP280;16487;53.094;8.800;2024-03-23T13:14:36;100698.41;;;13.33
29549;BMP280;16487;53.094;8.800;2024-03-23T13:17:02;100703.84;;;13.90
29549;BMP280;16487;53.094;8.800;2024-03-23T13:19:30;100679.78;;;13.70
29549;BMP280;16487;53.094;8.800;2024-03-23T13:21:57;100699.59;;;14.83
29549;BMP280;16487;53.094;8.800;2024-03-23T13:24:23;100701.13;;;14.42
29549;BMP280;16487;53.094;8.800;2024-03-23T13:26:50;100674.88;;;13.72
29549;BMP280;16487;53.094;8.800;2024-03-23T13:29:16;100662.56;;;12.98
29549;BMP280;16487;53.094;8.800;2024-03-23T13:31:43;100585.59;;;10.83
29549;BMP280;16487;53.094;8.800;2024-03-23T13:34:22;100557.13;;;9.90
29549;BMP280;16487;53.094;8.800;2024-03-23T13:36:53;100529.22;;;9.07
29549;BMP280;16487;53.094;8.800;2024-03-23T13:39:20;100441.88;;;6.44
29549;BMP280;16487;53.094;8.800;2024-03-23T13:41:46;100425.31;;;4.88
29549;BMP280;16487;53.094;8.800;2024-03-23T13:44:13;100439.13;;;4.73
29549;BMP280;16487;53.094;8.800;2024-03-23T13:46:40;100448.13;;;5.07
29549;BMP280;16487;53.094;8.800;2024-03-23T13:49:06;100445.41;;;5.31
29549;BMP280;16487;53.094;8.800;2024-03-23T13:51:33;100451.25;;;5.16
29549;BMP280;16487;53.094;8.800;2024-03-23T13:54:01;100447.09;;;5.37
29549;BMP280;16487;53.094;8.800;2024-03-23T13:56:27;100452.72;;;5.53
29549;BMP280;16487;53.094;8.800;2024-03-23T13:58:54;100454.81;;;5.79
29549;BMP280;16487;53.094;8.800;2024-03-23T14:01:20;100462.19;;;6.06
29549;BMP280;16487;53.094;8.800;2024-03-23T14:03:46;100462.34;;;6.00
29549;BMP280;16487;53.094;8.800;2024-03-23T14:06:12;100450.53;;;6.12
29549;BMP280;16487;53.094;8.800;2024-03-23T14:08:38;100434.66;;;6.40
29549;BMP280;16487;53.094;8.800;2024-03-23T14:11:06;100454.09;;;6.74
29549;BMP280;16487;53.094;8.800;2024-03-23T14:13:32;100468.09;;;7.53
29549;BMP280;16487;53.094;8.800;2024-03-23T14:15:59;100498.41;;;7.54
29549;BMP280;16487;53.094;8.800;2024-03-23T14:18:25;100509.16;;;7.59
29549;BMP280;16487;53.094;8.800;2024-03-23T14:20:52;100504.34;;;7.56
29549;BMP280;16487;53.094;8.800;2024-03-23T14:23:18;100504.34;;;8.63
29549;BMP280;16487;53.094;8.800;2024-03-23T14:25:44;100536.09;;;9.40
29549;BMP280;16487;53.094;8.800;2024-03-23T14:28:12;100572.63;;;10.86
29549;BMP280;16487;53.094;8.800;2024-03-23T14:30:41;100591.63;;;11.20
29549;BMP280;16487;53.094;8.800;2024-03-23T14:33:07;100589.19;;;11.68
29549;BMP280;16487;53.094;8.800;2024-03-23T14:35:33;100558.75;;;9.91
29549;BMP280;16487;53.094;8.800;2024-03-23T14:38:00;100508.34;;;9.29
29549;BMP280;16487;53.094;8.800;2024-03-23T14:40:26;100505.09;;;8.54
29549;BMP280;16487;53.094;8.800;2024-03-23T14:42:52;100495.41;;;8.10
29549;BMP280;16487;53.094;8.800;2024-03-23T14:45:20;100446.34;;;7.50
29549;BMP280;16487;53.094;8.800;2024-03-23T14:47:46;100418.03;;;7.96
29549;BMP280;16487;53.094;8.800;2024-03-23T14:50:12;100475.84;;;9.82
29549;BMP280;16487;53.094;8.800;2024-03-23T14:52:38;100486.75;;;10.63
29549;BMP280;16487;53.094;8.800;2024-03-23T14:55:05;100579.19;;;10.59
29549;BMP280;16487;53.094;8.800;2024-03-23T14:57:31;100581.59;;;10.50
29549;BMP280;16487;53.094;8.800;2024-03-23T14:59:57;100552.75;;;9.42